Flight Track Log - Related Links

Times and Time Zones

All times are in EDT time to prevent confusion due to time zone crossing. See the JBU1234 flight status page for this flight to view local times or setup timezone preferences in your user account.

Time Position Orientation Groundspeed Altitude Reporting Facility
EDT Latitude Longitude Course Direction KTS MPH feet Rate Location/Type
Mon 09:47:59 PM 18.4410 -65.9710 42° Northeast 170 196 1,500  Level FlightAware ADS-B
Mon 09:48:09 PM 18.4480 -65.9680 22° Northeast 187 215 1,800 1,636 Climbing FlightAware ADS-B
Mon 09:48:43 PM 18.4810 -65.9790 342° North 240 276 2,700 1,935 Climbing FlightAware ADS-B
Mon 09:49:11 PM 18.5100 -65.9940 334° Northwest 255 293 3,800 2,488 Climbing FlightAware ADS-B
Mon 09:49:24 PM 18.5220 -66.0040 322° Northwest 259 298 4,400 2,108 Climbing FlightAware ADS-B
Mon 09:49:48 PM 18.5440 -66.0280 314° West 290 334 5,100 1,946 Climbing FlightAware ADS-B
Mon 09:50:01 PM 18.5540 -66.0410 309° West 296 341 5,600 2,927 Climbing FlightAware ADS-B
Mon 09:50:29 PM 18.5820 -66.0730 313° West 297 342 7,100 2,893 Climbing FlightAware ADS-B
Mon 09:50:57 PM 18.6070 -66.1030 311° West 306 352 8,300 2,550 Climbing FlightAware ADS-B
Mon 09:51:09 PM 18.6200 -66.1180 312° West 309 356 8,800 2,222 Climbing FlightAware ADS-B
Mon 09:51:51 PM 18.6600 -66.1650 312° West 325 374 10,300 1,535 Climbing FlightAware ADS-B
Mon 09:52:35 PM 18.7080 -66.2210 312° West 372 428 11,000 1,500 Climbing FlightAware ADS-B
Mon 09:53:15 PM 18.7550 -66.2760 312° West 383 441 12,400 2,195 Climbing FlightAware ADS-B
Mon 09:53:57 PM 18.8050 -66.3340 312° West 389 448 14,000 2,100 Climbing FlightAware ADS-B
Mon 09:54:35 PM 18.8530 -66.3900 312° West 400 460 15,200 1,846 Climbing FlightAware ADS-B
Mon 09:55:15 PM 18.9020 -66.4480 312° West 407 468 16,400 1,875 Climbing FlightAware ADS-B
Mon 09:55:55 PM 18.9550 -66.5050 315° West 410 472 17,700 1,895 Climbing FlightAware ADS-B
Mon 09:56:31 PM 19.0050 -66.5560 316° Northwest 415 478 18,800 1,769 Climbing FlightAware ADS-B
Mon 09:57:13 PM 19.0630 -66.6160 316° Northwest 420 483 20,000 1,605 Climbing FlightAware ADS-B
Mon 09:57:57 PM 19.1200 -66.6840 312° West 427 491 21,100 1,532 Climbing FlightAware ADS-B
Mon 09:58:47 PM 19.1840 -66.7670 309° West 430 495 22,400 1,333 Climbing FlightAware ADS-B
Mon 09:59:27 PM 19.2340 -66.8310 310° West 436 502 23,100 964 Climbing FlightAware ADS-B
Mon 10:01:04 PM 19.3420 -66.9690 310° West 451 519 24,600 1,087 Climbing FlightAware ADS-B
Mon 10:01:45 PM 19.4160 -67.0660 309° West 456 525 25,600 1,259 Climbing FlightAware ADS-B
Mon 10:02:25 PM 19.4690 -67.1340 310° West 463 533 26,300 918 Climbing FlightAware ADS-B
Mon 10:03:10 PM 19.5310 -67.2140 309° West 471 542 26,900 837 Climbing FlightAware ADS-B
Mon 10:03:51 PM 19.5890 -67.2890 309° West 476 548 27,500 1,071 Climbing FlightAware ADS-B
Mon 10:04:34 PM 19.6480 -67.3650 310° West 476 548 28,400 1,000 Climbing FlightAware ADS-B
Mon 10:05:15 PM 19.7060 -67.4420 309° West 483 556 28,900 1,271 Climbing FlightAware ADS-B
Mon 10:05:59 PM 19.7670 -67.5210 309° West 470 541 30,200 1,541 Climbing FlightAware ADS-B
Mon 10:06:29 PM 19.8080 -67.5740 309° West 467 537 30,800 1,233 Climbing FlightAware ADS-B
Mon 10:07:12 PM 19.8650 -67.6480 309° West 462 532 31,700 1,172 Climbing FlightAware ADS-B
Mon 10:07:56 PM 19.9260 -67.7270 309° West 462 532 32,500 1,271 Climbing FlightAware ADS-B
Mon 10:08:37 PM 19.9810 -67.7990 309° West 454 522 33,500 1,446 Climbing FlightAware ADS-B
Mon 10:09:19 PM 20.0370 -67.8720 309° West 443 510 34,500 1,116 Climbing FlightAware ADS-B
Mon 10:10:03 PM 20.0920 -67.9440 309° West 442 509 35,100 918 Climbing FlightAware ADS-B
Mon 10:10:44 PM 20.1450 -68.0140 309° West 438 504 35,800 684 Climbing FlightAware ADS-B
Mon 10:11:22 PM 20.1950 -68.0790 309° West 444 511 36,000 160 Climbing FlightAware ADS-B
Mon 10:11:59 PM 20.2430 -68.1420 309° West 451 519 36,000  Level FlightAware ADS-B
Mon 10:12:42 PM 20.2990 -68.2170 309° West 451 519 36,000  Level FlightAware ADS-B
Mon 10:13:23 PM 20.3520 -68.2860 309° West 450 518 36,000  Level FlightAware ADS-B
Mon 10:13:58 PM 20.3960 -68.3490 307° West 447 514 36,000  Level FlightAware ADS-B
Mon 10:14:38 PM 20.4430 -68.4220 305° West 447 514 36,000  Level FlightAware ADS-B
Mon 10:15:29 PM 20.4930 -68.5020 304° West 447 514 36,000  Level FlightAware ADS-B
Mon 10:16:16 PM 20.5390 -68.5750 304° West 447 514 36,000  Level FlightAware ADS-B
Mon 10:16:52 PM 20.5750 -68.6310 304° West 447 514 36,000  Level FlightAware ADS-B
Mon 10:17:28 PM 20.6100 -68.6870 304° West 447 514 36,000  Level FlightAware ADS-B
Mon 10:18:16 PM 20.6570 -68.7620 304° West 447 514 36,000  Level FlightAware ADS-B
Mon 10:18:52 PM 20.6930 -68.8180 305° West 447 514 36,000  Level FlightAware ADS-B
Mon 10:19:40 PM 20.7400 -68.8920 304° West 447 514 36,000  Level FlightAware ADS-B
Mon 10:20:16 PM 20.7750 -68.9490 303° West 447 514 36,000  Level FlightAware ADS-B
Mon 10:21:04 PM 20.8230 -69.0230 305° West 447 514 36,000  Level FlightAware ADS-B
Mon 10:21:40 PM 20.8580 -69.0790 304° West 447 514 36,000  Level FlightAware ADS-B
Mon 10:22:28 PM 20.9050 -69.1540 304° West 447 514 36,000  Level FlightAware ADS-B
Mon 10:23:17 PM 20.9530 -69.2310 304° West 447 514 36,000  Level FlightAware ADS-B
Mon 10:23:54 PM 20.9900 -69.2890 304° West 447 514 36,000  Level FlightAware ADS-B
Mon 10:24:30 PM 21.0250 -69.3450 304° West 447 514 36,000  Level FlightAware ADS-B
Mon 10:25:20 PM 21.2150 -69.5894 304° West 450 518 36,000  Level Miami Center
Mon 10:26:18 PM 21.2869 -69.7011 305° West 455 524 36,000  Level Miami Center
Mon 10:27:20 PM 21.3628 -69.8106 307° West 455 524 36,000  Level Miami Center
Mon 10:28:18 PM 21.4306 -69.9228 303° West 455 524 36,000  Level Miami Center
Mon 10:29:20 PM 21.5042 -70.0347 305° West 450 518 36,000  Level Miami Center
Mon 10:30:19 PM 21.5758 -70.1469 304° West 450 518 36,000  Level Miami Center
Mon 10:31:20 PM 21.6497 -70.2594 305° West 450 518 36,000  Level Miami Center
Mon 10:32:18 PM 21.7211 -70.3719 304° West 455 524 36,000  Level Miami Center
Mon 10:33:18 PM 21.7906 -70.4822 304° West 455 524 36,000  Level Miami Center
Mon 10:34:20 PM 21.8639 -70.5928 306° West 450 518 36,000  Level Miami Center
Mon 10:35:18 PM 21.9353 -70.7056 304° West 450 518 36,000  Level Miami Center
Mon 10:36:18 PM 22.0064 -70.8186 304° West 450 518 36,000  Level Miami Center
Mon 10:37:19 PM 22.0775 -70.9294 305° West 450 518 36,000  Level Miami Center
Mon 10:38:20 PM 22.1508 -71.0428 305° West 450 518 36,000  Level Miami Center
Mon 10:39:18 PM 22.2239 -71.1581 304° West 450 518 36,000  Level Miami Center
Mon 10:40:18 PM 22.2972 -71.2739 304° West 455 524 36,000  Level Miami Center
Mon 10:41:21 PM 22.3703 -71.3919 304° West 466 536 36,000  Level Miami Center
Mon 10:42:21 PM 22.4433 -71.5056 305° West 466 536 36,000  Level Miami Center
Mon 10:43:18 PM 22.5142 -71.6217 303° West 466 536 36,000  Level Miami Center
Mon 10:44:18 PM 22.5892 -71.7378 305° West 466 536 36,000  Level Miami Center
Mon 10:45:18 PM 22.6619 -71.8542 304° West 466 536 36,000  Level Miami Center
Mon 10:46:19 PM 22.7325 -71.9683 304° West 466 536 36,000  Level Miami Center
Mon 10:47:20 PM 22.8050 -72.0828 305° West 466 536 36,000  Level Miami Center
Mon 10:48:21 PM 22.8753 -72.1950 304° West 466 536 36,000  Level Miami Center
Mon 10:49:18 PM 22.9456 -72.3142 303° West 466 536 36,000  Level Miami Center
Mon 10:50:19 PM 23.0203 -72.4333 304° West 466 536 36,000  Level Miami Center
Mon 10:51:20 PM 23.0925 -72.5483 304° West 461 531 36,000  Level Miami Center
Mon 10:52:18 PM 23.1647 -72.6656 304° West 472 543 36,000  Level Miami Center
Mon 10:53:20 PM 23.2369 -72.7831 304° West 472 543 36,000  Level Miami Center
Mon 10:54:21 PM 23.3089 -72.9028 303° West 467 537 36,000  Level Miami Center
Mon 10:55:18 PM 23.3789 -73.0183 303° West 472 543 36,000  Level Miami Center
Mon 10:56:21 PM 23.4569 -73.1381 305° West 478 550 36,000  Level Miami Center
Mon 10:57:21 PM 23.5267 -73.2561 303° West 478 550 36,000  Level Miami Center
Mon 10:58:18 PM 23.6028 -73.3742 305° West 478 550 36,000  Level Miami Center
Mon 10:59:19 PM 23.6703 -73.4947 301° West 478 550 36,000  Level Miami Center
Mon 11:00:18 PM 23.7417 -73.6131 303° West 478 550 36,000  Level Miami Center
Mon 11:01:21 PM 23.8194 -73.7314 306° West 478 550 36,000  Level Miami Center
Mon 11:02:20 PM 23.8867 -73.8478 302° West 473 544 36,000  Level Miami Center
Mon 11:03:21 PM 23.9622 -73.9689 304° West 479 551 36,000  Level Miami Center
Mon 11:04:21 PM 24.0333 -74.0878 303° West 474 545 36,000  Level Miami Center
Mon 11:05:18 PM 24.1025 -74.2047 303° West 474 545 36,000  Level Miami Center
Mon 11:06:20 PM 24.1756 -74.3261 303° West 474 545 36,000  Level Miami Center
Mon 11:07:18 PM 24.2486 -74.4475 303° West 474 545 36,000  Level Miami Center
Mon 11:08:18 PM 24.3217 -74.5669 304° West 474 545 36,000  Level Miami Center
Mon 11:09:21 PM 24.3944 -74.6889 303° West 480 552 36,000  Level Miami Center
Mon 11:10:19 PM 24.4650 -74.8108 302° West 480 552 36,000  Level Miami Center
Mon 11:11:19 PM 24.5400 -74.9375 303° West 480 552 36,000  Level Miami Center
Mon 11:12:19 PM 24.6125 -75.0600 303° West 480 552 36,000  Level Miami Center
Mon 11:13:18 PM 24.6850 -75.1822 303° West 480 552 36,000  Level Miami Center
Mon 11:14:21 PM 24.7594 -75.3072 303° West 480 552 36,000  Level Miami Center
Mon 11:15:18 PM 24.8319 -75.4344 302° West 480 552 36,000  Level Miami Center
Mon 11:16:18 PM 24.9042 -75.5597 302° West 487 560 36,000  Level Miami Center
Mon 11:17:21 PM 24.9783 -75.6872 303° West 493 567 36,000  Level Miami Center
Mon 11:18:19 PM 25.0439 -75.8014 302° West 493 567 36,000  Level Miami Center
Mon 11:19:18 PM 25.1181 -75.9292 303° West 493 567 36,000  Level Miami Center
Mon 11:20:19 PM 25.1919 -76.0572 303° West 493 567 36,000  Level Miami Center
Mon 11:21:21 PM 25.2658 -76.1878 302° West 493 567 36,000  Level Miami Center
Mon 11:22:19 PM 25.3414 -76.3161 303° West 493 567 36,000  Level Miami Center
Mon 11:23:20 PM 25.4172 -76.4469 303° West 493 567 36,000  Level Miami Center
Mon 11:24:20 PM 25.4886 -76.5778 301° West 493 567 36,000  Level Miami Center
Mon 11:25:18 PM 25.5661 -76.7089 303° West 493 567 36,000  Level Miami Center
Mon 11:26:19 PM 25.6392 -76.8403 302° West 493 567 36,000  Level Miami Center
Mon 11:27:20 PM 25.7125 -76.9717 302° West 493 567 36,000  Level Miami Center
Mon 11:28:20 PM 25.7894 -77.1056 303° West 499 574 36,000  Level Miami Center
Mon 11:29:21 PM 25.8625 -77.2397 301° West 505 581 36,000  Level Miami Center
Mon 11:30:18 PM 25.9372 -77.3717 302° West 510 587 36,000  Level Miami Center
Mon 11:31:18 PM 26.0203 -77.5178 302° West 515 593 36,000  Level Miami Center
Mon 11:32:20 PM 26.0928 -77.6456 302° West 515 593 36,000  Level Miami Center
Mon 11:33:18 PM 26.1650 -77.7872 300° West 515 593 36,000  Level Miami Center
Mon 11:39:29 PM 26.6160 -78.6000 300° West 492 566 36,000  Level FlightAware ADS-B
Mon 11:40:09 PM 26.6640 -78.6870 302° West 490 564 36,000  Level FlightAware ADS-B
Mon 11:40:46 PM 26.7070 -78.7660 301° West 489 563 36,000  Level FlightAware ADS-B
Mon 11:41:21 PM 26.7420 -78.8320 301° West 484 557 36,000 -282 Level FlightAware ADS-B
Mon 11:42:11 PM 26.8000 -78.9380 302° West 474 545 35,600 -776 Descending FlightAware ADS-B
Mon 11:42:46 PM 26.8430 -79.0180 301° West 475 547 34,900 -1,143 Descending FlightAware ADS-B
Mon 11:43:35 PM 26.9020 -79.1280 301° West 496 571 34,000 -1,047 Descending FlightAware ADS-B
Mon 11:44:12 PM 26.9470 -79.2100 302° West 499 574 33,400 -637 Descending FlightAware ADS-B
Mon 11:45:28 PM 27.0260 -79.3620 300° West 497 572 32,800 -1,041 Descending FlightAware ADS-B
Mon 11:46:13 PM 27.0900 -79.4780 302° West 490 564 31,300 -1,674 Descending FlightAware ADS-B
Mon 11:46:54 PM 27.1370 -79.5660 301° West 479 551 30,400 -1,364 Descending FlightAware ADS-B
Mon 11:47:41 PM 27.1870 -79.6610 301° West 456 525 29,300 -1,435 Descending FlightAware ADS-B
Mon 11:48:26 PM 27.2360 -79.7530 301° West 438 504 28,200 -1,400 Descending FlightAware ADS-B
Mon 11:49:11 PM 27.2810 -79.8380 301° West 417 480 27,200 -1,341 Descending FlightAware ADS-B
Mon 11:49:51 PM 27.3200 -79.9110 301° West 413 475 26,300 -1,200 Descending FlightAware ADS-B
Mon 11:50:31 PM 27.3600 -79.9870 301° West 413 475 25,600 -1,125 Descending FlightAware ADS-B
Mon 11:51:11 PM 27.3980 -80.0580 301° West 409 471 24,800 -837 Descending FlightAware ADS-B
Mon 11:51:57 PM 27.4380 -80.1360 300° West 408 470 24,400 -1,125 Descending FlightAware ADS-B
Mon 11:52:31 PM 27.4720 -80.2000 301° West 407 468 23,300 -1,416 Descending FlightAware ADS-B
Mon 11:53:26 PM 27.5270 -80.3040 301° West 399 459 22,300 -729 Descending FlightAware ADS-B
Mon 11:54:18 PM 27.5690 -80.3870 300° West 390 449 22,000 -182 Descending FlightAware ADS-B
Mon 11:55:05 PM 27.6040 -80.4580 299° West 390 449 22,000  Level FlightAware ADS-B
Mon 11:55:42 PM 27.6310 -80.5140 299° West 390 449 22,000 -867 Level FlightAware ADS-B
Mon 11:56:28 PM 27.6860 -80.6090 303° West 360 414 20,800 -1,723 Descending FlightAware ADS-B
Mon 11:57:23 PM 27.7310 -80.6960 300° West 355 409 19,100 -2,133 Descending FlightAware ADS-B
Mon 11:57:58 PM 27.7590 -80.7500 300° West 350 403 17,600 -2,720 Descending FlightAware ADS-B
Mon 11:58:38 PM 27.7940 -80.8170 301° West 351 404 15,700 -2,415 Descending FlightAware ADS-B
Mon 11:59:20 PM 27.8290 -80.8840 301° West 350 403 14,300 -1,642 Descending FlightAware ADS-B
Tue 12:00:13 AM 27.8720 -80.9680 300° West 332 382 13,100 -1,484 Descending FlightAware ADS-B
Tue 12:00:53 AM 27.9030 -81.0280 300° West 328 377 12,000 -1,553 Descending FlightAware ADS-B
Tue 12:01:38 AM 27.9350 -81.0900 300° West 320 368 10,900 -1,014 Descending FlightAware ADS-B
Tue 12:02:04 AM 27.9640 -81.1200 318° Northwest 302 348 10,800 -91 Descending FlightAware ADS-B
Tue 12:02:44 AM 28.0180 -81.1390 343° North 288 331 10,800  Level FlightAware ADS-B
Tue 12:03:29 AM 28.0750 -81.1580 344° North 287 330 10,800  Level FlightAware ADS-B
Tue 12:04:09 AM 28.1280 -81.1750 344° North 285 328 10,800 -353 Level FlightAware ADS-B
Tue 12:04:54 AM 28.1860 -81.1880 349° North 287 330 10,300 -676 Descending FlightAware ADS-B
Tue 12:05:20 AM 28.2220 -81.1880 360° North 289 333 10,000 -600 Descending FlightAware ADS-B
Tue 12:05:44 AM 28.2550 -81.1880 360° North 288 331 9,800 -203 Descending FlightAware ADS-B
Tue 12:06:19 AM 28.3020 -81.1880 360° North 272 313 9,800 -100 Level FlightAware ADS-B
Tue 12:06:44 AM 28.3310 -81.1880 360° North 242 278 9,700 -923 Descending FlightAware ADS-B
Tue 12:07:24 AM 28.3770 -81.1880 360° North 226 260 8,800 -1,477 Descending FlightAware ADS-B
Tue 12:07:49 AM 28.4040 -81.1880 360° North 229 264 8,100 -1,636 Descending FlightAware ADS-B
Tue 12:08:19 AM 28.4370 -81.1880 360° North 226 260 7,300 -1,619 Descending FlightAware ADS-B
Tue 12:08:52 AM 28.4690 -81.1880 360° North 224 258 6,400 -1,667 Descending FlightAware ADS-B
Tue 12:09:49 AM 28.5340 -81.1880 360° North 224 258 4,800 -1,537 Descending FlightAware ADS-B
Tue 12:10:14 AM 28.5590 -81.1950 346° North 233 268 4,300 -982 Descending FlightAware ADS-B
Tue 12:10:44 AM 28.5820 -81.2210 315° West 221 254 3,900 -462 Descending FlightAware ADS-B
Tue 12:11:19 AM 28.6040 -81.2520 309° West 204 235 3,800 -133 Descending FlightAware ADS-B
Tue 12:11:29 AM 28.6050 -81.2580 281° West 194 223 3,800 -1,029 Level FlightAware ADS-B
Tue 12:11:54 AM 28.6040 -81.2840 267° West 182 209 3,200 -1,418 Descending FlightAware ADS-B
Tue 12:12:24 AM 28.5990 -81.3120 259° West 173 199 2,500 -1,174 Descending FlightAware ADS-B
Tue 12:12:40 AM 28.5910 -81.3200 221° Southwest 164 189 2,300 -300 Descending FlightAware ADS-B
Tue 12:13:04 AM 28.5730 -81.3220 186° South 149 171 2,300 -367 Level FlightAware ADS-B
Tue 12:13:29 AM 28.5550 -81.3230 183° South 144 166 2,000 -732 Descending FlightAware ADS-B
Tue 12:13:45 AM 28.5450 -81.3230 180° South 132 152 1,800 -800 Descending FlightAware ADS-B
Tue 12:14:14 AM 28.5260 -81.3230 180° South 131 151 1,400 -750 Descending FlightAware ADS-B
Tue 12:14:41 AM 28.5100 -81.3230 180° South 129 148 1,100 -667 Descending FlightAware ADS-B
Tue 12:16:18 AM 28.4490 -81.3220 179° South 132 152 -680 Descending FlightAware ADS-B
Tue 12:16:57 AM 28.4320 -81.3220 180° South 31 36  Level FlightAware ADS-B
Tue 12:17:09 AM 28.4310 -81.3200 120° Southeast 20 23  Level FlightAware ADS-B
Tue 12:17:29 AM 28.4320 -81.3180 60° Northeast 15 17  Level FlightAware ADS-B
Tue 12:17:39 AM 28.4330 -81.3180 360° North 16 18  Level FlightAware ADS-B
Tue 12:18:09 AM 28.4360 -81.3180 360° North 20 23  Level FlightAware ADS-B
Tue 12:18:39 AM 28.4380 -81.3180 360° North 15 17  Level FlightAware ADS-B

Login

Don't have an account? Register now (free) for customized features, flight alerts, and more!